Time;durP1;ratioP1;P1;durP2;ratioP2;P2;SDS_P1;SDS_P2;PMS_P1;PMS_P2;Temp;Humidity;BMP_temperature;BMP_pressure;BME280_temperature;BME280_humidity;BME280_pressure;Samples;Min_cycle;Max_cycle;Signal;HPM_P1;HPM_P2
2023/06/27 00:00:13;;;;;;;17.23;5.97;;;;;;;14.81;90.89;101854.84;5055887;28;20025;-45
2023/06/27 00:02:42;;;;;;;21.90;7.13;;;;;;;14.83;91.22;101857.47;5055466;28;20035;-47
2023/06/27 00:05:08;;;;;;;22.05;6.10;;;;;;;14.80;91.92;101850.47;5055159;28;20036;-46
2023/06/27 00:07:33;;;;;;;17.08;6.72;;;;;;;14.81;92.70;101847.06;5055561;28;20021;-45
2023/06/27 00:09:59;;;;;;;20.23;6.65;;;;;;;14.81;92.32;101854.84;5055314;28;20049;-46
2023/06/27 00:12:24;;;;;;;15.63;6.03;;;;;;;14.76;93.09;101853.84;5054708;28;20025;-47
2023/06/27 00:14:49;;;;;;;18.85;6.97;;;;;;;14.69;92.78;101857.06;5055447;28;20100;-47
2023/06/27 00:17:16;;;;;;;21.20;6.88;;;;;;;14.74;93.34;101850.31;5055101;28;20028;-48
2023/06/27 00:19:44;;;;;;;18.90;7.07;;;;;;;14.67;94.50;101848.38;5054527;28;20029;-47
2023/06/27 00:22:10;;;;;;;24.42;7.35;;;;;;;14.74;94.16;101842.50;5055276;28;20033;-45
2023/06/27 00:24:36;;;;;;;19.95;7.32;;;;;;;14.70;93.17;101848.47;5054912;28;20531;-46
2023/06/27 00:27:03;;;;;;;22.80;7.32;;;;;;;14.72;92.89;101852.00;5054842;28;20044;-46
2023/06/27 00:29:28;;;;;;;22.20;7.70;;;;;;;14.77;92.91;101852.09;5054995;28;20024;-46
2023/06/27 00:31:55;;;;;;;22.08;7.72;;;;;;;14.78;93.14;101852.19;5055026;28;20108;-48
2023/06/27 00:34:20;;;;;;;24.83;8.07;;;;;;;14.80;93.89;101852.22;5054770;28;20025;-44
2023/06/27 00:36:46;;;;;;;26.77;7.85;;;;;;;14.78;93.92;101846.97;5055072;28;20480;-47
2023/06/27 00:39:11;;;;;;;31.63;8.40;;;;;;;14.77;92.90;101850.41;5054439;28;20044;-46
2023/06/27 00:41:36;;;;;;;23.15;7.45;;;;;;;14.84;92.74;101845.41;5054882;28;20057;-47
2023/06/27 00:44:07;;;;;;;28.85;7.70;;;;;;;14.85;92.78;101847.13;5055063;28;20033;-43
2023/06/27 00:46:39;;;;;;;38.63;8.38;;;;;;;14.83;92.93;101844.50;5053937;28;20071;-51
2023/06/27 00:49:10;;;;;;;24.95;7.13;;;;;;;14.87;92.99;101850.66;5055166;28;20075;-45
2023/06/27 00:51:36;;;;;;;24.80;8.30;;;;;;;14.83;92.57;101849.69;5054678;28;20025;-45
2023/06/27 00:54:02;;;;;;;24.02;7.68;;;;;;;14.85;92.49;101847.13;5054121;28;20033;-46
2023/06/27 00:56:28;;;;;;;22.90;7.30;;;;;;;14.87;93.30;101850.66;5054687;28;20383;-46
2023/06/27 00:58:54;;;;;;;27.33;8.20;;;;;;;14.85;92.97;101857.50;5054770;28;20366;-48
2023/06/27 01:01:20;;;;;;;21.58;8.23;;;;;;;14.79;92.99;101853.03;5053900;28;20025;-48
2023/06/27 01:03:45;;;;;;;21.50;7.57;;;;;;;14.78;93.10;101846.97;5054205;28;20129;-46
2023/06/27 01:06:30;;;;;;;27.02;8.50;;;;;;;14.77;92.86;101860.78;5054471;28;20037;-46
2023/06/27 01:09:05;;;;;;;27.42;8.70;;;;;;;14.71;93.26;101854.53;5054021;28;20032;-48
2023/06/27 01:11:42;;;;;;;35.17;8.88;;;;;;;14.71;93.33;101854.53;5054093;28;20043;-45
2023/06/27 01:14:09;;;;;;;31.98;8.73;;;;;;;14.68;93.41;101857.03;5054465;28;20049;-47
2023/06/27 01:16:36;;;;;;;21.73;8.65;;;;;;;14.61;94.94;101858.53;5053783;28;20029;-47
2023/06/27 01:19:07;;;;;;;27.50;9.87;;;;;;;14.65;94.51;101850.03;5054627;28;20039;-45
2023/06/27 01:21:34;;;;;;;36.78;10.73;;;;;;;14.62;94.15;101844.75;5053172;28;20397;-49
2023/06/27 01:24:03;;;;;;;25.15;9.05;;;;;;;14.63;94.08;101841.31;5054428;28;20025;-47
2023/06/27 01:26:28;;;;;;;31.60;9.07;;;;;;;14.69;94.22;101851.88;5053876;28;20562;-49
2023/06/27 01:28:54;;;;;;;31.60;9.02;;;;;;;14.60;94.77;101854.19;5052988;28;20025;-46
2023/06/27 01:31:47;;;;;;;25.15;8.45;;;;;;;14.58;95.41;101858.47;5054026;28;20040;-44
2023/06/27 01:34:18;;;;;;;27.48;8.82;;;;;;;14.52;94.92;101856.56;5053726;28;20036;-47
2023/06/27 01:37:00;;;;;;;26.67;9.18;;;;;;;14.52;94.93;101861.75;5053186;28;20068;-47
2023/06/27 01:39:32;;;;;;;33.72;9.63;;;;;;;14.44;95.20;101856.31;5053741;28;20044;-46
2023/06/27 01:42:05;;;;;;;31.40;9.73;;;;;;;14.43;95.52;101854.56;5053886;28;20029;-46
2023/06/27 01:44:33;;;;;;;27.92;9.52;;;;;;;14.42;95.77;101855.41;5052927;28;20477;-46
2023/06/27 01:46:58;;;;;;;23.20;8.55;;;;;;;14.37;95.86;101846.63;5053789;28;20158;-46
2023/06/27 01:49:24;;;;;;;29.02;9.50;;;;;;;14.39;96.11;101857.91;5053453;28;20051;-45
2023/06/27 01:51:49;;;;;;;26.95;9.77;;;;;;;14.37;96.26;101849.22;5053412;28;20354;-47
2023/06/27 01:54:14;;;;;;;32.70;9.40;;;;;;;14.40;96.32;101838.91;5053614;28;20025;-44
2023/06/27 01:56:40;;;;;;;29.23;10.00;;;;;;;14.42;95.75;101841.56;5052505;28;20493;-45
2023/06/27 01:59:05;;;;;;;36.95;9.15;;;;;;;14.44;96.12;101839.91;5053543;28;20025;-43
2023/06/27 02:01:30;;;;;;;30.80;9.50;;;;;;;14.43;96.20;101838.13;5053172;28;20021;-46
2023/06/27 02:03:56;;;;;;;26.70;9.27;;;;;;;14.40;96.13;101845.84;5052966;28;20083;-45
2023/06/27 02:06:21;;;;;;;33.85;9.93;;;;;;;14.41;96.36;101845.88;5053659;28;20496;-44
2023/06/27 02:08:48;;;;;;;33.40;10.00;;;;;;;14.39;96.34;101837.16;5053196;28;20033;-47
2023/06/27 02:11:13;;;;;;;32.50;9.32;;;;;;;14.35;96.29;101839.63;5052780;28;20032;-45
2023/06/27 02:13:38;;;;;;;28.15;9.63;;;;;;;14.39;96.95;101831.09;5053009;28;20107;-47
2023/06/27 02:16:04;;;;;;;25.67;9.93;;;;;;;14.38;96.69;101834.53;5053168;28;20032;-47
2023/06/27 02:18:30;;;;;;;23.55;9.27;;;;;;;14.35;96.99;101834.44;5052213;28;20021;-46
2023/06/27 02:20:55;;;;;;;37.30;10.55;;;;;;;14.40;97.73;101833.72;5053004;28;20489;-47
2023/06/27 02:23:20;;;;;;;36.30;10.25;;;;;;;14.34;97.16;101825.75;5053085;28;20078;-47
2023/06/27 02:25:46;;;;;;;27.27;8.82;;;;;;;14.40;97.23;101828.53;5052297;28;20029;-47
2023/06/27 02:28:11;;;;;;;34.88;10.10;;;;;;;14.34;97.19;101823.16;5053225;28;20025;-48
2023/06/27 02:30:36;;;;;;;29.80;10.20;;;;;;;14.34;97.37;101828.34;5052476;28;20029;-44
2023/06/27 02:33:02;;;;;;;35.15;10.25;;;;;;;14.32;97.27;101828.31;5052800;28;20025;-47
2023/06/27 02:35:27;;;;;;;35.55;10.10;;;;;;;14.32;97.51;101827.44;5052741;28;20033;-46
2023/06/27 02:37:52;;;;;;;40.45;10.45;;;;;;;14.35;97.75;101829.25;5052907;28;20017;-47
2023/06/27 02:40:18;;;;;;;24.00;9.15;;;;;;;14.32;98.01;101827.44;5052024;28;20067;-47
2023/06/27 02:42:43;;;;;;;41.30;10.50;;;;;;;14.36;97.76;101816.31;5052194;28;20538;-48
2023/06/27 02:45:09;;;;;;;42.05;10.95;;;;;;;14.31;97.71;101823.09;5052613;28;20488;-47
2023/06/27 02:47:34;;;;;;;39.85;11.00;;;;;;;14.26;98.08;101820.34;5051942;28;20472;-47
2023/06/27 02:49:59;;;;;;;31.25;10.38;;;;;;;14.23;98.48;101832.34;5052637;28;20108;-46
2023/06/27 02:52:25;;;;;;;33.78;10.15;;;;;;;14.16;98.86;101824.41;5052517;28;20057;-44
2023/06/27 02:54:50;;;;;;;33.15;10.23;;;;;;;14.15;99.13;101820.03;5052135;28;20033;-47
2023/06/27 02:57:15;;;;;;;36.67;9.75;;;;;;;14.14;99.08;101825.19;5052734;28;20120;-47
2023/06/27 02:59:41;;;;;;;28.45;10.40;;;;;;;14.12;99.74;101827.69;5052276;28;20022;-48
2023/06/27 03:02:06;;;;;;;33.42;10.25;;;;;;;14.11;99.92;101831.16;5052089;28;20112;-47
2023/06/27 03:04:31;;;;;;;33.35;9.77;;;;;;;14.11;100.00;101836.34;5052752;28;20357;-48
2023/06/27 03:06:57;;;;;;;41.72;11.52;;;;;;;14.06;100.00;101842.19;5051798;28;20068;-43
2023/06/27 03:09:22;;;;;;;31.33;11.25;;;;;;;14.03;100.00;101826.56;5052645;28;20061;-48
2023/06/27 03:11:47;;;;;;;35.00;10.38;;;;;;;14.04;100.00;101830.91;5052567;28;20051;-45
2023/06/27 03:14:17;;;;;;;30.20;11.10;;;;;;;14.02;100.00;101819.59;5051710;28;20025;-46
2023/06/27 03:16:42;;;;;;;35.92;10.30;;;;;;;14.00;100.00;101837.72;5052188;28;20027;-44
2023/06/27 03:19:08;;;;;;;27.52;9.85;;;;;;;14.04;100.00;101839.56;5052514;28;20029;-43
2023/06/27 03:21:33;;;;;;;42.63;11.43;;;;;;;14.03;100.00;101837.78;5051215;28;20048;-47
2023/06/27 03:23:58;;;;;;;27.52;10.57;;;;;;;13.99;100.00;101831.66;5052390;28;20048;-45
2023/06/27 03:26:27;;;;;;;32.10;11.18;;;;;;;14.02;100.00;101838.66;5052038;28;20029;-46
2023/06/27 03:28:54;;;;;;;42.75;11.57;;;;;;;14.02;100.00;101832.56;5051862;28;20417;-47
2023/06/27 03:31:19;;;;;;;38.25;10.90;;;;;;;13.99;100.00;101831.66;5052324;28;20032;-47
2023/06/27 03:33:46;;;;;;;47.03;11.20;;;;;;;14.00;100.00;101832.53;5051964;28;20021;-48
2023/06/27 03:36:11;;;;;;;37.27;12.23;;;;;;;13.97;100.00;101835.03;5051798;28;20108;-48
2023/06/27 03:38:37;;;;;;;45.20;11.70;;;;;;;13.96;100.00;101830.69;5051917;28;20105;-46
2023/06/27 03:41:02;;;;;;;34.65;11.27;;;;;;;14.00;100.00;101840.31;5052107;28;20033;-47
2023/06/27 03:43:27;;;;;;;33.60;10.23;;;;;;;13.97;100.00;101837.63;5051483;28;20021;-49
2023/06/27 03:45:52;;;;;;;38.10;12.15;;;;;;;13.96;100.00;101839.31;5052404;28;20033;-48
2023/06/27 03:48:18;;;;;;;42.53;11.40;;;;;;;13.95;100.00;101839.28;5052213;28;20087;-49
2023/06/27 03:50:43;;;;;;;36.00;11.50;;;;;;;13.92;100.00;101834.00;5051670;28;20025;-43
2023/06/27 03:53:08;;;;;;;34.58;10.85;;;;;;;13.92;100.00;101841.78;5054536;28;20053;-47
2023/06/27 03:55:34;;;;;;;36.72;10.98;;;;;;;13.96;100.00;101841.03;5055436;28;20434;-47
2023/06/27 03:58:00;;;;;;;40.40;11.90;;;;;;;13.92;100.00;101846.97;5055512;28;20411;-48
2023/06/27 04:00:26;;;;;;;32.33;10.98;;;;;;;13.88;100.00;101842.50;5055641;28;20456;-47
2023/06/27 04:02:51;;;;;;;38.25;12.07;;;;;;;13.86;100.00;101844.16;5055749;28;20489;-47
2023/06/27 04:05:16;;;;;;;41.92;12.57;;;;;;;13.85;100.00;101837.22;5055462;28;20376;-46
2023/06/27 04:07:42;;;;;;;36.47;11.45;;;;;;;13.78;100.00;101837.03;5055389;28;20044;-46
2023/06/27 04:10:07;;;;;;;39.17;11.85;;;;;;;13.81;100.00;101841.41;5055125;28;20080;-44
2023/06/27 04:12:33;;;;;;;45.78;11.88;;;;;;;13.80;100.00;101837.06;5055220;28;20024;-44
2023/06/27 04:14:58;;;;;;;44.42;12.35;;;;;;;13.73;100.00;101841.16;5055414;28;20056;-47
2023/06/27 04:17:23;;;;;;;38.00;12.65;;;;;;;13.74;100.00;101836.88;5054621;28;20029;-43
2023/06/27 04:19:48;;;;;;;39.22;11.50;;;;;;;13.69;100.00;101841.91;5055462;28;20025;-45
2023/06/27 04:22:14;;;;;;;43.70;12.25;;;;;;;13.68;100.00;101834.09;5055275;28;20152;-43
2023/06/27 04:24:39;;;;;;;46.40;13.10;;;;;;;13.69;100.00;101835.84;5054394;28;20112;-44
2023/06/27 04:27:08;;;;;;;37.80;12.38;;;;;;;13.68;100.00;101834.09;5055444;28;20029;-44
2023/06/27 04:29:34;;;;;;;44.55;12.98;;;;;;;13.65;100.00;101842.66;5054683;28;20029;-45
2023/06/27 04:31:59;;;;;;;39.40;13.35;;;;;;;13.66;100.00;101842.69;5054635;28;20128;-44
2023/06/27 04:34:24;;;;;;;41.97;12.65;;;;;;;13.62;100.00;101845.09;5055106;28;20060;-43
2023/06/27 04:36:51;;;;;;;48.90;14.40;;;;;;;13.58;100.00;101853.63;5055125;28;20104;-45
2023/06/27 04:39:16;;;;;;;41.28;13.27;;;;;;;13.55;100.00;101848.34;5054554;28;20472;-45
2023/06/27 04:41:41;;;;;;;49.05;13.90;;;;;;;13.55;100.00;101853.53;5054895;28;20029;-46
2023/06/27 04:44:07;;;;;;;45.17;12.73;;;;;;;13.54;100.00;101851.75;5054845;28;20041;-45
2023/06/27 04:46:32;;;;;;;45.50;13.80;;;;;;;13.54;100.00;101851.75;5054430;28;20032;-44
2023/06/27 04:48:58;;;;;;;39.13;13.23;;;;;;;13.50;100.00;101850.78;5054990;28;20017;-43
2023/06/27 04:51:28;;;;;;;50.58;14.65;;;;;;;13.49;100.00;101854.19;5054510;28;20047;-43
2023/06/27 04:53:54;;;;;;;47.08;13.80;;;;;;;13.49;100.00;101849.00;5054449;28;20560;-43
2023/06/27 04:56:19;;;;;;;50.22;13.63;;;;;;;13.47;100.00;101859.31;5054754;28;20116;-43
2023/06/27 04:58:45;;;;;;;46.13;14.50;;;;;;;13.50;100.00;101856.84;5054448;28;20479;-44
2023/06/27 05:01:10;;;;;;;46.03;14.38;;;;;;;13.47;100.00;101861.03;5054154;28;20032;-44
2023/06/27 05:03:38;;;;;;;52.15;14.13;;;;;;;13.48;100.00;101862.81;5053512;28;20044;-45
2023/06/27 05:06:05;;;;;;;43.13;14.88;;;;;;;13.50;100.00;101862.03;5054653;28;20029;-43
2023/06/27 05:08:30;;;;;;;48.90;15.10;;;;;;;13.54;100.00;101862.13;5053775;28;20032;-44
2023/06/27 05:10:56;;;;;;;57.97;15.13;;;;;;;13.60;100.00;101852.84;5054519;28;20033;-43
2023/06/27 05:13:22;;;;;;;47.80;14.55;;;;;;;13.64;100.00;101864.19;5054202;28;20024;-45
2023/06/27 05:15:47;;;;;;;46.83;15.85;;;;;;;13.67;100.00;101848.72;5053878;28;20427;-44
2023/06/27 05:18:13;;;;;;;46.60;15.07;;;;;;;13.75;100.00;101860.25;5054361;28;20079;-46
2023/06/27 05:20:39;;;;;;;40.85;14.82;;;;;;;13.83;100.00;101866.56;5053153;28;20055;-48
2023/06/27 05:23:05;;;;;;;46.08;15.48;;;;;;;13.93;100.00;101861.66;5054553;28;20473;-46
2023/06/27 05:25:31;;;;;;;48.22;16.15;;;;;;;14.01;100.00;101862.81;5053962;28;20056;-44
2023/06/27 05:27:57;;;;;;;57.20;15.63;;;;;;;14.12;100.00;101858.81;5053400;28;20465;-43
2023/06/27 05:30:23;;;;;;;50.17;16.98;;;;;;;14.21;100.00;101857.34;5053708;28;20362;-46
2023/06/27 05:32:48;;;;;;;44.92;16.40;;;;;;;14.27;100.00;101858.41;5053778;28;20539;-48
2023/06/27 05:35:13;;;;;;;63.88;16.95;;;;;;;14.35;100.00;101858.66;5053460;28;20033;-45
2023/06/27 05:37:39;;;;;;;49.10;16.30;;;;;;;14.47;100.00;101855.53;5053772;28;20021;-44
2023/06/27 05:40:05;;;;;;;48.88;16.48;;;;;;;14.56;100.00;101853.22;5053765;28;20033;-46
2023/06/27 05:42:30;;;;;;;50.42;16.05;;;;;;;14.64;100.00;101854.38;5052900;28;20025;-43
2023/06/27 05:44:56;;;;;;;57.55;17.38;;;;;;;14.76;100.00;101856.44;5054089;28;20025;-43
2023/06/27 05:47:21;;;;;;;58.38;16.40;;;;;;;14.82;100.00;101859.19;5053749;28;20017;-47
2023/06/27 05:49:47;;;;;;;53.47;16.73;;;;;;;14.91;100.00;101850.81;5053023;28;20029;-46
2023/06/27 05:52:13;;;;;;;62.47;16.52;;;;;;;15.03;100.00;101841.56;5053782;28;20052;-44
2023/06/27 05:54:38;;;;;;;45.28;15.77;;;;;;;15.13;100.00;101854.84;5053053;28;20064;-43
2023/06/27 05:57:04;;;;;;;44.28;15.77;;;;;;;15.16;100.00;101859.25;5053005;28;20029;-43
2023/06/27 05:59:29;;;;;;;43.15;14.05;;;;;;;15.26;100.00;101855.16;5053174;28;20021;-45
2023/06/27 06:01:55;;;;;;;42.65;15.07;;;;;;;15.40;100.00;101860.72;5053408;28;20021;-44
2023/06/27 06:04:20;;;;;;;43.80;14.68;;;;;;;15.44;100.00;101854.75;5053123;28;20082;-46
2023/06/27 06:06:46;;;;;;;43.80;14.95;;;;;;;15.59;100.00;101852.56;5053129;28;20017;-45
2023/06/27 06:09:12;;;;;;;33.42;14.27;;;;;;;15.67;100.00;101849.28;5053233;28;20025;-46
2023/06/27 06:11:37;;;;;;;44.58;14.15;;;;;;;15.79;100.00;101857.41;5052455;28;20031;-47
2023/06/27 06:14:04;;;;;;;38.40;13.60;;;;;;;15.91;100.00;101847.31;5053594;28;20024;-43
2023/06/27 06:16:33;;;;;;;43.30;14.07;;;;;;;15.96;100.00;101855.22;5052445;28;20029;-43
2023/06/27 06:19:03;;;;;;;36.42;11.95;;;;;;;16.05;100.00;101850.22;5052763;28;20039;-43
2023/06/27 06:21:28;;;;;;;41.58;12.98;;;;;;;16.09;100.00;101859.84;5052702;28;20037;-43
2023/06/27 06:23:54;;;;;;;41.92;13.27;;;;;;;16.18;100.00;101856.59;5052470;28;20052;-46
2023/06/27 06:26:19;;;;;;;35.40;12.55;;;;;;;16.26;100.00;101854.16;5053112;28;20025;-43
2023/06/27 06:28:45;;;;;;;33.00;12.07;;;;;;;16.35;100.00;101858.69;5052930;28;20037;-43
2023/06/27 06:31:11;;;;;;;32.20;12.65;;;;;;;16.48;100.00;101857.25;5052436;28;20495;-44
2023/06/27 06:33:38;;;;;;;34.65;12.15;;;;;;;16.52;100.00;101867.72;5052677;28;20104;-43
2023/06/27 06:36:04;;;;;;;32.03;12.05;;;;;;;16.63;100.00;101871.44;5052648;28;20504;-45
2023/06/27 06:38:29;;;;;;;28.10;11.50;;;;;;;16.79;100.00;101867.41;5052052;28;20040;-48
2023/06/27 06:40:55;;;;;;;34.50;11.63;;;;;;;16.84;100.00;101874.47;5053114;28;20017;-42
2023/06/27 06:43:26;;;;;;;29.98;10.65;;;;;;;16.93;100.00;101877.28;5052800;28;20025;-47
2023/06/27 06:45:52;;;;;;;28.63;11.23;;;;;;;17.00;100.00;101870.47;5052418;28;20029;-44
2023/06/27 06:48:19;;;;;;;31.80;11.43;;;;;;;17.09;99.22;101878.44;5052901;28;20032;-45
2023/06/27 06:50:45;;;;;;;31.03;11.03;;;;;;;17.22;97.56;101882.16;5052198;28;20535;-44
2023/06/27 06:53:10;;;;;;;36.22;10.60;;;;;;;17.27;97.76;101870.09;5052188;28;20029;-42
2023/06/27 06:55:35;;;;;;;28.00;10.68;;;;;;;17.46;97.12;101878.25;5052631;28;20107;-41
2023/06/27 06:58:01;;;;;;;33.92;11.15;;;;;;;17.60;99.20;101889.81;5052610;28;20067;-43
2023/06/27 07:00:26;;;;;;;28.70;11.02;;;;;;;17.68;96.12;101876.91;5051975;28;20049;-42
2023/06/27 07:02:52;;;;;;;26.95;9.80;;;;;;;17.83;95.96;101879.75;5052708;28;20021;-45
2023/06/27 07:05:17;;;;;;;24.75;8.90;;;;;;;17.94;93.98;101888.63;5052410;28;20014;-45
2023/06/27 07:07:42;;;;;;;25.02;9.30;;;;;;;18.02;90.88;101883.53;5051715;28;20033;-44
2023/06/27 07:10:08;;;;;;;27.95;9.82;;;;;;;18.12;91.53;101878.50;5052674;28;20024;-43
2023/06/27 07:12:34;;;;;;;27.00;8.90;;;;;;;18.29;91.53;101882.19;5052165;28;20036;-42
2023/06/27 07:14:59;;;;;;;20.13;8.60;;;;;;;18.39;87.92;101881.47;5052103;28;20082;-46
2023/06/27 07:17:24;;;;;;;21.63;7.40;;;;;;;18.66;85.96;101884.44;5052343;28;20025;-42
2023/06/27 07:19:49;;;;;;;18.98;7.13;;;;;;;18.80;84.69;101897.66;5052338;28;20021;-44
2023/06/27 07:22:15;;;;;;;26.63;7.63;;;;;;;19.20;83.58;101880.75;5051686;28;20033;-43
2023/06/27 07:24:40;;;;;;;16.85;6.25;;;;;;;19.53;79.20;101884.53;5052317;28;20021;-47
2023/06/27 07:27:06;;;;;;;17.25;5.65;;;;;;;20.01;77.31;101882.34;5052389;28;20108;-43
2023/06/27 07:29:31;;;;;;;17.75;5.07;;;;;;;19.80;73.18;101883.00;5056263;28;20025;-42
2023/06/27 07:31:57;;;;;;;12.90;4.40;;;;;;;19.70;71.97;101882.06;5056162;28;20064;-42
2023/06/27 07:34:22;;;;;;;12.65;3.85;;;;;;;19.59;68.76;101878.50;5055698;28;20037;-42
2023/06/27 07:36:47;;;;;;;12.20;3.85;;;;;;;19.57;68.41;101874.97;5056264;28;20052;-43
2023/06/27 07:39:13;;;;;;;14.02;4.45;;;;;;;19.64;70.77;101875.88;5055925;28;20027;-46
2023/06/27 07:41:39;;;;;;;14.40;3.63;;;;;;;19.82;72.83;101886.56;5055571;28;20028;-42
2023/06/27 07:44:04;;;;;;;12.23;3.45;;;;;;;19.83;71.83;101882.19;5056364;28;20033;-45
2023/06/27 07:46:30;;;;;;;15.13;3.88;;;;;;;19.99;69.71;101886.69;5055536;28;20024;-46
2023/06/27 07:48:59;;;;;;;13.00;3.60;;;;;;;20.11;66.42;101880.66;5055566;28;20096;-43
2023/06/27 07:51:25;;;;;;;10.77;3.35;;;;;;;20.40;70.33;101880.81;5055687;28;20021;-45
2023/06/27 07:53:50;;;;;;;14.13;3.50;;;;;;;20.38;68.02;101886.91;5055698;28;20498;-43
2023/06/27 07:56:16;;;;;;;15.50;4.10;;;;;;;20.49;66.91;101884.34;5055332;28;20139;-44
2023/06/27 07:58:43;;;;;;;11.98;4.07;;;;;;;20.56;66.32;101875.66;5055761;28;20498;-44
2023/06/27 08:01:08;;;;;;;16.38;3.63;;;;;;;20.79;66.85;101877.53;5055700;28;20024;-44
2023/06/27 08:03:34;;;;;;;20.48;4.80;;;;;;;20.74;68.63;101885.38;5055032;28;20026;-46
2023/06/27 08:06:03;;;;;;;10.88;3.30;;;;;;;20.69;62.93;101887.06;5055954;28;20013;-46
2023/06/27 08:08:29;;;;;;;9.63;2.80;;;;;;;20.75;60.51;101875.75;5055108;28;20530;-47
2023/06/27 08:10:56;;;;;;;10.85;3.00;;;;;;;20.72;61.38;101877.50;5055341;28;20021;-45
2023/06/27 08:13:22;;;;;;;9.45;2.83;;;;;;;21.05;60.67;101881.09;5055794;28;20052;-44
2023/06/27 08:15:47;;;;;;;8.85;2.78;;;;;;;21.07;61.79;101882.84;5055246;28;20037;-47
2023/06/27 08:18:12;;;;;;;11.43;3.28;;;;;;;21.21;59.79;101874.16;5055199;28;20033;-44
2023/06/27 08:20:38;;;;;;;10.27;2.95;;;;;;;21.15;57.97;101876.75;5055004;28;20024;-43
2023/06/27 08:23:03;;;;;;;10.48;2.92;;;;;;;21.22;57.17;101872.41;5055393;28;20534;-43
2023/06/27 08:25:28;;;;;;;9.15;2.30;;;;;;;21.70;57.21;101875.97;5054556;28;20031;-43
2023/06/27 08:27:54;;;;;;;10.50;2.42;;;;;;;21.70;59.00;101875.97;5055466;28;20025;-45
2023/06/27 08:30:19;;;;;;;10.55;2.70;;;;;;;21.40;57.70;101886.41;5054656;28;20025;-43
2023/06/27 08:32:45;;;;;;;12.73;3.05;;;;;;;21.47;56.96;101883.81;5054990;28;20104;-48
2023/06/27 08:35:11;;;;;;;10.27;2.53;;;;;;;21.08;57.89;101879.38;5055013;28;20025;-46
2023/06/27 08:37:37;;;;;;;9.50;2.80;;;;;;;21.27;57.45;101880.28;5054341;28;20522;-45
2023/06/27 08:40:03;;;;;;;11.55;3.20;;;;;;;21.19;58.47;101872.41;5053812;28;20263;-45
2023/06/27 08:42:32;;;;;;;12.63;2.90;;;;;;;21.00;58.48;101877.59;5054738;28;20029;-42
2023/06/27 08:44:58;;;;;;;10.90;2.90;;;;;;;20.88;57.64;101872.31;5054700;28;20077;-46
2023/06/27 08:47:26;;;;;;;10.65;2.72;;;;;;;21.13;58.11;101870.63;5054671;28;20110;-44
2023/06/27 08:50:05;;;;;;;7.70;2.35;;;;;;;21.13;58.29;101872.38;5054584;28;20021;-48
2023/06/27 08:52:40;;;;;;;13.15;3.13;;;;;;;21.26;57.14;101871.53;5054141;28;20463;-44
2023/06/27 08:55:12;;;;;;;10.75;2.75;;;;;;;21.19;56.99;101872.41;5054918;28;20059;-47
2023/06/27 08:57:38;;;;;;;11.50;2.83;;;;;;;21.02;57.50;101864.50;5054105;28;20435;-45
2023/06/27 09:00:13;;;;;;;13.52;3.38;;;;;;;20.93;56.23;101867.97;5054299;28;20058;-46
2023/06/27 09:02:40;;;;;;;10.50;2.42;;;;;;;21.20;56.35;101868.88;5054638;28;20033;-44
2023/06/27 09:05:07;;;;;;;11.75;2.72;;;;;;;21.18;54.77;101862.78;5054485;28;20068;-44
2023/06/27 09:07:33;;;;;;;11.55;2.78;;;;;;;21.30;55.61;101860.16;5054055;28;20029;-47
2023/06/27 09:09:59;;;;;;;10.43;3.08;;;;;;;21.46;54.21;101868.94;5054596;28;20153;-44
2023/06/27 09:12:27;;;;;;;11.90;3.00;;;;;;;21.93;55.11;101872.44;5054208;28;20032;-46
2023/06/27 09:14:53;;;;;;;11.35;2.70;;;;;;;21.99;51.65;101866.31;5053866;28;20108;-46
2023/06/27 09:17:18;;;;;;;9.65;2.40;;;;;;;22.18;51.38;101867.13;5054396;28;20127;-45
2023/06/27 09:19:43;;;;;;;14.93;2.63;;;;;;;22.07;50.70;101868.94;5053711;28;20082;-43
2023/06/27 09:22:09;;;;;;;8.68;2.60;;;;;;;22.03;52.05;101868.91;5053984;28;20052;-45
2023/06/27 09:24:40;;;;;;;12.10;2.72;;;;;;;22.01;52.21;101860.19;5053825;28;20025;-42
2023/06/27 09:27:24;;;;;;;9.20;2.80;;;;;;;22.35;51.35;101865.34;5053759;28;20029;-43
2023/06/27 09:29:49;;;;;;;12.93;2.65;;;;;;;22.15;49.84;101867.16;5054380;28;20032;-43
2023/06/27 09:32:15;;;;;;;11.82;3.10;;;;;;;22.44;53.38;101864.47;5053980;28;20025;-47
2023/06/27 09:34:40;;;;;;;16.13;2.83;;;;;;;22.50;49.70;101868.81;5053172;28;20037;-43
2023/06/27 09:37:05;;;;;;;9.27;2.17;;;;;;;22.39;47.67;101870.59;5054168;28;20052;-42
2023/06/27 09:39:31;;;;;;;10.68;2.10;;;;;;;22.40;46.34;101872.34;5053397;28;20024;-43
2023/06/27 09:41:56;;;;;;;10.23;2.08;;;;;;;22.15;46.25;101872.41;5053383;28;20099;-43
2023/06/27 09:44:24;;;;;;;11.40;2.10;;;;;;;22.29;46.92;101880.25;5053820;28;20102;-41
2023/06/27 09:46:54;;;;;;;7.45;2.10;;;;;;;22.19;45.87;101896.03;5053831;28;20029;-45
2023/06/27 09:49:21;;;;;;;9.02;2.10;;;;;;;22.41;46.51;101892.50;5053441;28;20098;-46
2023/06/27 09:51:49;;;;;;;18.42;1.98;;;;;;;22.91;45.22;101903.69;5053123;28;20024;-42
2023/06/27 09:54:21;;;;;;;8.63;2.10;;;;;;;22.78;45.73;101884.47;5053606;28;20088;-42
2023/06/27 09:56:51;;;;;;;9.20;2.08;;;;;;;22.92;46.26;101885.28;5052755;28;20480;-47
2023/06/27 09:59:19;;;;;;;168.73;17.02;;;;;;;23.59;48.06;101880.47;5053428;28;20380;-45
2023/06/27 10:01:45;;;;;;;15.90;2.75;;;;;;;23.26;44.20;101877.22;5053185;28;20044;-43
2023/06/27 10:04:10;;;;;;;11.90;2.78;;;;;;;23.80;44.88;101875.91;5053495;28;20365;-43
2023/06/27 10:06:37;;;;;;;10.07;2.05;;;;;;;23.94;44.48;101881.09;5053086;28;20547;-46
2023/06/27 10:09:03;;;;;;;;;;;;;;;24.22;45.56;101883.41;5053161;28;20036;-48
2023/06/27 10:11:28;;;;;;;9.45;2.05;;;;;;;23.90;45.79;101869.69;5053052;28;19913;-47
2023/06/27 10:13:54;;;;;;;9.07;2.47;;;;;;;24.06;44.82;101875.66;5052978;28;20033;-43
2023/06/27 10:16:20;;;;;;;11.20;2.35;;;;;;;24.21;42.97;101885.19;5052675;28;20033;-47
2023/06/27 10:18:47;;;;;;;16.02;2.15;;;;;;;24.65;43.14;101883.81;5053018;28;20027;-43
2023/06/27 10:21:13;;;;;;;10.10;2.38;;;;;;;24.22;40.66;101884.31;5052739;28;20041;-47
2023/06/27 10:23:41;;;;;;;7.67;1.77;;;;;;;23.79;40.40;101880.28;5052520;28;20052;-48
2023/06/27 10:26:09;;;;;;;9.60;2.00;;;;;;;24.10;42.92;101887.06;5053106;28;20021;-48
2023/06/27 10:28:35;;;;;;;11.75;2.33;;;;;;;24.75;42.24;101891.59;5052787;28;20040;-45
2023/06/27 10:31:02;;;;;;;11.68;2.00;;;;;;;25.36;40.89;101891.63;5052628;28;20037;-48
2023/06/27 10:33:28;;;;;;;8.93;2.35;;;;;;;25.99;37.69;101882.66;5052794;28;20016;-43
2023/06/27 10:36:05;;;;;;;13.35;2.20;;;;;;;26.19;37.31;101882.28;5052729;28;20028;-43
2023/06/27 10:38:45;;;;;;;10.13;2.50;;;;;;;27.03;35.57;101880.56;5051985;28;20560;-43
2023/06/27 10:41:12;;;;;;;8.32;2.00;;;;;;;26.90;34.12;101874.69;5053040;28;20087;-42
2023/06/27 10:43:46;;;;;;;7.70;1.83;;;;;;;27.21;33.42;101876.63;5052453;28;20032;-43
2023/06/27 10:46:21;;;;;;;7.60;1.60;;;;;;;27.74;32.76;101873.56;5052361;28;20029;-44
2023/06/27 10:48:53;;;;;;;8.27;1.65;;;;;;;26.90;32.25;101864.13;5052318;28;20036;-43
2023/06/27 10:51:20;;;;;;;9.30;1.83;;;;;;;26.41;32.96;101874.81;5052432;28;20086;-43
2023/06/27 10:54:14;;;;;;;11.35;2.50;;;;;;;25.88;35.33;101874.91;5052608;28;20104;-44
2023/06/27 10:56:44;;;;;;;12.52;2.00;;;;;;;24.60;35.44;101877.69;5052175;28;20433;-44
2023/06/27 10:59:13;;;;;;;8.50;1.92;;;;;;;24.14;37.87;101872.97;5052000;28;20031;-44
2023/06/27 11:01:52;;;;;;;9.18;1.92;;;;;;;25.26;37.85;101868.00;5051867;28;20025;-47
2023/06/27 11:04:18;;;;;;;8.65;1.90;;;;;;;26.19;35.92;101869.09;5052662;28;20051;-42
2023/06/27 11:06:45;;;;;;;8.07;2.43;;;;;;;26.88;34.04;101861.50;5051769;28;20041;-43
2023/06/27 11:09:13;;;;;;;10.18;2.10;;;;;;;25.89;34.78;101868.75;5052541;28;20763;-47